sensor_id;sensor_type;location;lat;lon;timestamp;P1;durP1;ratioP1;P2;durP2;ratioP2
40314;SDS011;26021;45.640;11.302;2023-05-07T00:02:20;18.55;;;15.98;;
40314;SDS011;26021;45.640;11.302;2023-05-07T00:04:46;16.30;;;14.80;;
40314;SDS011;26021;45.640;11.302;2023-05-07T00:07:11;18.00;;;15.77;;
40314;SDS011;26021;45.640;11.302;2023-05-07T00:09:37;17.00;;;15.27;;
40314;SDS011;26021;45.640;11.302;2023-05-07T00:12:02;17.05;;;14.93;;
40314;SDS011;26021;45.640;11.302;2023-05-07T00:14:28;19.00;;;16.70;;
40314;SDS011;26021;45.640;11.302;2023-05-07T00:16:53;18.33;;;16.23;;
40314;SDS011;26021;45.640;11.302;2023-05-07T00:19:19;17.60;;;15.75;;
40314;SDS011;26021;45.640;11.302;2023-05-07T00:21:44;17.77;;;16.00;;
40314;SDS011;26021;45.640;11.302;2023-05-07T00:24:10;18.17;;;16.27;;
40314;SDS011;26021;45.640;11.302;2023-05-07T00:26:35;16.50;;;14.77;;
40314;SDS011;26021;45.640;11.302;2023-05-07T00:29:00;16.92;;;15.13;;
40314;SDS011;26021;45.640;11.302;2023-05-07T00:31:26;18.27;;;15.30;;
40314;SDS011;26021;45.640;11.302;2023-05-07T00:33:51;17.45;;;15.75;;
40314;SDS011;26021;45.640;11.302;2023-05-07T00:36:17;17.67;;;15.82;;
40314;SDS011;26021;45.640;11.302;2023-05-07T00:38:42;16.58;;;14.93;;
40314;SDS011;26021;45.640;11.302;2023-05-07T00:41:07;16.80;;;15.10;;
40314;SDS011;26021;45.640;11.302;2023-05-07T00:43:33;17.77;;;15.88;;
40314;SDS011;26021;45.640;11.302;2023-05-07T00:45:58;16.98;;;15.38;;
40314;SDS011;26021;45.640;11.302;2023-05-07T00:48:24;18.00;;;15.85;;
40314;SDS011;26021;45.640;11.302;2023-05-07T00:53:36;17.50;;;15.80;;
40314;SDS011;26021;45.640;11.302;2023-05-07T00:56:02;20.45;;;14.93;;
40314;SDS011;26021;45.640;11.302;2023-05-07T00:58:27;18.27;;;16.38;;
40314;SDS011;26021;45.640;11.302;2023-05-07T01:00:53;17.23;;;15.43;;
40314;SDS011;26021;45.640;11.302;2023-05-07T01:03:18;17.50;;;15.55;;
40314;SDS011;26021;45.640;11.302;2023-05-07T01:05:44;17.45;;;15.02;;
40314;SDS011;26021;45.640;11.302;2023-05-07T01:08:12;17.23;;;15.52;;
40314;SDS011;26021;45.640;11.302;2023-05-07T01:10:40;16.33;;;14.63;;
40314;SDS011;26021;45.640;11.302;2023-05-07T01:13:08;25.00;;;15.75;;
40314;SDS011;26021;45.640;11.302;2023-05-07T01:15:35;16.95;;;15.25;;
40314;SDS011;26021;45.640;11.302;2023-05-07T01:18:01;16.92;;;15.23;;
40314;SDS011;26021;45.640;11.302;2023-05-07T01:20:27;17.23;;;15.48;;
40314;SDS011;26021;45.640;11.302;2023-05-07T01:22:53;16.45;;;14.80;;
40314;SDS011;26021;45.640;11.302;2023-05-07T01:25:20;17.23;;;15.50;;
40314;SDS011;26021;45.640;11.302;2023-05-07T01:27:45;19.10;;;16.10;;
40314;SDS011;26021;45.640;11.302;2023-05-07T01:30:11;16.58;;;14.60;;
40314;SDS011;26021;45.640;11.302;2023-05-07T01:32:42;21.50;;;15.38;;
40314;SDS011;26021;45.640;11.302;2023-05-07T01:35:15;17.80;;;15.18;;
40314;SDS011;26021;45.640;11.302;2023-05-07T01:37:45;16.58;;;14.65;;
40314;SDS011;26021;45.640;11.302;2023-05-07T01:40:11;17.13;;;14.55;;
40314;SDS011;26021;45.640;11.302;2023-05-07T01:42:38;17.10;;;15.40;;
40314;SDS011;26021;45.640;11.302;2023-05-07T01:45:04;17.15;;;15.45;;
40314;SDS011;26021;45.640;11.302;2023-05-07T01:47:30;18.23;;;15.38;;
40314;SDS011;26021;45.640;11.302;2023-05-07T01:49:56;18.27;;;15.85;;
40314;SDS011;26021;45.640;11.302;2023-05-07T01:52:22;17.65;;;15.88;;
40314;SDS011;26021;45.640;11.302;2023-05-07T01:54:47;22.25;;;15.40;;
40314;SDS011;26021;45.640;11.302;2023-05-07T01:57:13;15.30;;;13.80;;
40314;SDS011;26021;45.640;11.302;2023-05-07T01:59:38;16.10;;;14.50;;
40314;SDS011;26021;45.640;11.302;2023-05-07T02:02:04;16.13;;;14.50;;
40314;SDS011;26021;45.640;11.302;2023-05-07T02:04:29;16.20;;;14.50;;
40314;SDS011;26021;45.640;11.302;2023-05-07T02:06:54;15.95;;;14.50;;
40314;SDS011;26021;45.640;11.302;2023-05-07T02:09:20;15.68;;;14.07;;
40314;SDS011;26021;45.640;11.302;2023-05-07T02:11:46;16.10;;;14.50;;
40314;SDS011;26021;45.640;11.302;2023-05-07T02:14:11;15.18;;;13.73;;
40314;SDS011;26021;45.640;11.302;2023-05-07T02:16:36;15.45;;;13.95;;
40314;SDS011;26021;45.640;11.302;2023-05-07T02:19:02;16.05;;;14.10;;
40314;SDS011;26021;45.640;11.302;2023-05-07T02:21:27;15.45;;;14.02;;
40314;SDS011;26021;45.640;11.302;2023-05-07T02:23:53;15.80;;;14.02;;
40314;SDS011;26021;45.640;11.302;2023-05-07T02:26:18;16.05;;;14.48;;
40314;SDS011;26021;45.640;11.302;2023-05-07T02:28:44;16.40;;;14.73;;
40314;SDS011;26021;45.640;11.302;2023-05-07T02:31:09;15.38;;;13.88;;
40314;SDS011;26021;45.640;11.302;2023-05-07T02:33:35;16.85;;;14.68;;
40314;SDS011;26021;45.640;11.302;2023-05-07T02:36:05;17.55;;;14.93;;
40314;SDS011;26021;45.640;11.302;2023-05-07T02:38:31;17.17;;;15.32;;
40314;SDS011;26021;45.640;11.302;2023-05-07T02:40:57;15.77;;;14.18;;
40314;SDS011;26021;45.640;11.302;2023-05-07T02:43:22;16.35;;;14.77;;
40314;SDS011;26021;45.640;11.302;2023-05-07T02:45:48;18.85;;;15.70;;
40314;SDS011;26021;45.640;11.302;2023-05-07T02:48:13;17.30;;;15.25;;
40314;SDS011;26021;45.640;11.302;2023-05-07T02:50:38;19.67;;;15.90;;
40314;SDS011;26021;45.640;11.302;2023-05-07T02:53:04;18.02;;;16.17;;
40314;SDS011;26021;45.640;11.302;2023-05-07T02:55:30;16.13;;;14.63;;
40314;SDS011;26021;45.640;11.302;2023-05-07T02:57:56;17.40;;;15.68;;
40314;SDS011;26021;45.640;11.302;2023-05-07T03:00:21;18.80;;;14.95;;
40314;SDS011;26021;45.640;11.302;2023-05-07T03:02:47;16.67;;;15.00;;
40314;SDS011;26021;45.640;11.302;2023-05-07T03:05:12;16.13;;;14.52;;
40314;SDS011;26021;45.640;11.302;2023-05-07T03:07:39;15.73;;;14.13;;
40314;SDS011;26021;45.640;11.302;2023-05-07T03:10:04;18.83;;;16.92;;
40314;SDS011;26021;45.640;11.302;2023-05-07T03:12:31;16.95;;;15.25;;
40314;SDS011;26021;45.640;11.302;2023-05-07T03:14:56;16.52;;;14.82;;
40314;SDS011;26021;45.640;11.302;2023-05-07T03:17:22;17.02;;;15.38;;
40314;SDS011;26021;45.640;11.302;2023-05-07T03:19:47;18.90;;;16.77;;
40314;SDS011;26021;45.640;11.302;2023-05-07T03:22:13;17.05;;;15.35;;
40314;SDS011;26021;45.640;11.302;2023-05-07T03:24:38;17.55;;;15.95;;
40314;SDS011;26021;45.640;11.302;2023-05-07T03:27:04;17.70;;;15.82;;
40314;SDS011;26021;45.640;11.302;2023-05-07T03:29:29;17.73;;;15.85;;
40314;SDS011;26021;45.640;11.302;2023-05-07T03:31:55;17.85;;;16.15;;
40314;SDS011;26021;45.640;11.302;2023-05-07T03:34:20;15.68;;;14.15;;
40314;SDS011;26021;45.640;11.302;2023-05-07T03:36:48;17.48;;;15.88;;
40314;SDS011;26021;45.640;11.302;2023-05-07T03:39:13;18.85;;;16.67;;
40314;SDS011;26021;45.640;11.302;2023-05-07T03:41:39;18.90;;;17.05;;
40314;SDS011;26021;45.640;11.302;2023-05-07T03:44:05;18.08;;;16.27;;
40314;SDS011;26021;45.640;11.302;2023-05-07T03:46:30;17.73;;;16.13;;
40314;SDS011;26021;45.640;11.302;2023-05-07T03:48:57;17.88;;;16.08;;
40314;SDS011;26021;45.640;11.302;2023-05-07T03:51:23;18.33;;;16.63;;
40314;SDS011;26021;45.640;11.302;2023-05-07T03:53:48;17.95;;;16.15;;
40314;SDS011;26021;45.640;11.302;2023-05-07T03:56:14;19.05;;;17.15;;
40314;SDS011;26021;45.640;11.302;2023-05-07T03:58:39;18.60;;;16.70;;
40314;SDS011;26021;45.640;11.302;2023-05-07T04:01:05;17.50;;;15.80;;
40314;SDS011;26021;45.640;11.302;2023-05-07T04:03:30;18.58;;;16.50;;
40314;SDS011;26021;45.640;11.302;2023-05-07T04:05:56;17.70;;;15.95;;
40314;SDS011;26021;45.640;11.302;2023-05-07T04:08:21;18.10;;;16.10;;
40314;SDS011;26021;45.640;11.302;2023-05-07T04:10:46;21.25;;;17.95;;
40314;SDS011;26021;45.640;11.302;2023-05-07T04:13:12;18.45;;;16.65;;
40314;SDS011;26021;45.640;11.302;2023-05-07T04:15:38;18.90;;;17.00;;
40314;SDS011;26021;45.640;11.302;2023-05-07T04:18:03;20.63;;;18.63;;
40314;SDS011;26021;45.640;11.302;2023-05-07T04:20:29;21.40;;;19.20;;
40314;SDS011;26021;45.640;11.302;2023-05-07T04:22:54;20.25;;;18.10;;
40314;SDS011;26021;45.640;11.302;2023-05-07T04:25:20;19.98;;;18.08;;
40314;SDS011;26021;45.640;11.302;2023-05-07T04:27:46;20.77;;;17.73;;
40314;SDS011;26021;45.640;11.302;2023-05-07T04:30:11;21.85;;;17.95;;
40314;SDS011;26021;45.640;11.302;2023-05-07T04:32:37;20.35;;;17.90;;
40314;SDS011;26021;45.640;11.302;2023-05-07T04:35:04;19.63;;;17.67;;
40314;SDS011;26021;45.640;11.302;2023-05-07T04:37:31;18.95;;;16.95;;
40314;SDS011;26021;45.640;11.302;2023-05-07T04:39:57;17.90;;;16.20;;
40314;SDS011;26021;45.640;11.302;2023-05-07T04:42:22;19.10;;;17.15;;
40314;SDS011;26021;45.640;11.302;2023-05-07T04:44:52;21.25;;;19.10;;
40314;SDS011;26021;45.640;11.302;2023-05-07T04:47:18;20.40;;;18.20;;
40314;SDS011;26021;45.640;11.302;2023-05-07T04:49:43;22.75;;;18.55;;
40314;SDS011;26021;45.640;11.302;2023-05-07T04:52:09;21.42;;;19.23;;
40314;SDS011;26021;45.640;11.302;2023-05-07T04:54:34;20.23;;;18.23;;
40314;SDS011;26021;45.640;11.302;2023-05-07T04:57:00;19.88;;;17.88;;
40314;SDS011;26021;45.640;11.302;2023-05-07T04:59:25;20.80;;;18.60;;
40314;SDS011;26021;45.640;11.302;2023-05-07T05:01:51;19.55;;;17.63;;
40314;SDS011;26021;45.640;11.302;2023-05-07T05:04:16;18.38;;;16.58;;
40314;SDS011;26021;45.640;11.302;2023-05-07T05:06:41;19.15;;;17.13;;
40314;SDS011;26021;45.640;11.302;2023-05-07T05:09:07;19.75;;;17.85;;
40314;SDS011;26021;45.640;11.302;2023-05-07T05:11:32;20.20;;;18.15;;
40314;SDS011;26021;45.640;11.302;2023-05-07T05:13:59;21.58;;;18.58;;
40314;SDS011;26021;45.640;11.302;2023-05-07T05:16:25;18.88;;;16.92;;
40314;SDS011;26021;45.640;11.302;2023-05-07T05:18:51;17.83;;;16.00;;
40314;SDS011;26021;45.640;11.302;2023-05-07T05:21:17;18.77;;;16.85;;
40314;SDS011;26021;45.640;11.302;2023-05-07T05:23:42;20.27;;;18.38;;
40314;SDS011;26021;45.640;11.302;2023-05-07T05:26:08;20.27;;;18.17;;
40314;SDS011;26021;45.640;11.302;2023-05-07T05:28:33;21.08;;;18.83;;
40314;SDS011;26021;45.640;11.302;2023-05-07T05:30:59;19.42;;;17.48;;
40314;SDS011;26021;45.640;11.302;2023-05-07T05:33:24;19.85;;;17.95;;
40314;SDS011;26021;45.640;11.302;2023-05-07T05:35:50;19.80;;;17.98;;
40314;SDS011;26021;45.640;11.302;2023-05-07T05:38:15;20.40;;;18.30;;
40314;SDS011;26021;45.640;11.302;2023-05-07T05:40:41;18.30;;;16.50;;
40314;SDS011;26021;45.640;11.302;2023-05-07T05:43:06;19.15;;;17.25;;
40314;SDS011;26021;45.640;11.302;2023-05-07T05:45:32;18.58;;;16.77;;
40314;SDS011;26021;45.640;11.302;2023-05-07T05:47:57;17.70;;;16.10;;
40314;SDS011;26021;45.640;11.302;2023-05-07T05:50:23;18.73;;;16.85;;
40314;SDS011;26021;45.640;11.302;2023-05-07T05:52:48;18.75;;;16.83;;
40314;SDS011;26021;45.640;11.302;2023-05-07T05:55:14;18.73;;;16.80;;
40314;SDS011;26021;45.640;11.302;2023-05-07T05:57:39;18.65;;;17.05;;
40314;SDS011;26021;45.640;11.302;2023-05-07T06:00:05;18.55;;;16.85;;
40314;SDS011;26021;45.640;11.302;2023-05-07T06:02:31;19.55;;;17.55;;
40314;SDS011;26021;45.640;11.302;2023-05-07T06:04:57;19.20;;;17.23;;
40314;SDS011;26021;45.640;11.302;2023-05-07T06:07:22;18.63;;;16.83;;
40314;SDS011;26021;45.640;11.302;2023-05-07T06:09:48;18.92;;;16.92;;
40314;SDS011;26021;45.640;11.302;2023-05-07T06:12:13;16.95;;;15.45;;
40314;SDS011;26021;45.640;11.302;2023-05-07T06:14:38;17.83;;;16.10;;
40314;SDS011;26021;45.640;11.302;2023-05-07T06:17:05;16.92;;;15.43;;
40314;SDS011;26021;45.640;11.302;2023-05-07T06:19:32;17.77;;;16.08;;
40314;SDS011;26021;45.640;11.302;2023-05-07T06:21:57;16.17;;;14.77;;
40314;SDS011;26021;45.640;11.302;2023-05-07T06:24:23;18.73;;;16.13;;
40314;SDS011;26021;45.640;11.302;2023-05-07T06:26:49;18.67;;;16.83;;
40314;SDS011;26021;45.640;11.302;2023-05-07T06:29:15;17.08;;;15.48;;
40314;SDS011;26021;45.640;11.302;2023-05-07T06:31:40;17.90;;;16.05;;
40314;SDS011;26021;45.640;11.302;2023-05-07T06:34:06;17.15;;;15.63;;
40314;SDS011;26021;45.640;11.302;2023-05-07T06:36:32;17.85;;;16.23;;
40314;SDS011;26021;45.640;11.302;2023-05-07T06:38:57;17.02;;;15.63;;
40314;SDS011;26021;45.640;11.302;2023-05-07T06:41:22;14.95;;;13.55;;
40314;SDS011;26021;45.640;11.302;2023-05-07T06:43:48;15.40;;;14.00;;
40314;SDS011;26021;45.640;11.302;2023-05-07T06:46:13;14.75;;;13.55;;
40314;SDS011;26021;45.640;11.302;2023-05-07T06:48:39;16.30;;;14.68;;
40314;SDS011;26021;45.640;11.302;2023-05-07T06:51:05;16.23;;;14.68;;
40314;SDS011;26021;45.640;11.302;2023-05-07T06:53:31;16.52;;;14.93;;
40314;SDS011;26021;45.640;11.302;2023-05-07T06:55:56;18.13;;;16.33;;
40314;SDS011;26021;45.640;11.302;2023-05-07T06:58:22;15.93;;;14.52;;
40314;SDS011;26021;45.640;11.302;2023-05-07T07:00:47;17.27;;;15.60;;
40314;SDS011;26021;45.640;11.302;2023-05-07T07:03:13;18.80;;;15.27;;
40314;SDS011;26021;45.640;11.302;2023-05-07T07:05:40;17.48;;;14.70;;
40314;SDS011;26021;45.640;11.302;2023-05-07T07:08:06;15.85;;;14.43;;
40314;SDS011;26021;45.640;11.302;2023-05-07T07:10:31;15.93;;;14.32;;
40314;SDS011;26021;45.640;11.302;2023-05-07T07:12:56;16.58;;;14.95;;
40314;SDS011;26021;45.640;11.302;2023-05-07T07:15:22;16.95;;;15.27;;
40314;SDS011;26021;45.640;11.302;2023-05-07T07:17:49;15.68;;;14.18;;
40314;SDS011;26021;45.640;11.302;2023-05-07T07:20:15;16.60;;;15.10;;
40314;SDS011;26021;45.640;11.302;2023-05-07T07:22:41;13.02;;;11.82;;
40314;SDS011;26021;45.640;11.302;2023-05-07T07:25:06;14.05;;;12.65;;
40314;SDS011;26021;45.640;11.302;2023-05-07T07:27:32;15.25;;;13.80;;
40314;SDS011;26021;45.640;11.302;2023-05-07T07:29:58;14.75;;;13.30;;
40314;SDS011;26021;45.640;11.302;2023-05-07T07:32:23;15.23;;;13.60;;
40314;SDS011;26021;45.640;11.302;2023-05-07T07:34:48;14.07;;;12.75;;
40314;SDS011;26021;45.640;11.302;2023-05-07T07:37:14;14.13;;;12.70;;
40314;SDS011;26021;45.640;11.302;2023-05-07T07:39:39;13.27;;;12.07;;
40314;SDS011;26021;45.640;11.302;2023-05-07T07:42:06;12.00;;;10.82;;
40314;SDS011;26021;45.640;11.302;2023-05-07T07:44:31;12.70;;;11.50;;
40314;SDS011;26021;45.640;11.302;2023-05-07T07:46:57;13.30;;;12.00;;
40314;SDS011;26021;45.640;11.302;2023-05-07T07:49:22;12.98;;;11.77;;
40314;SDS011;26021;45.640;11.302;2023-05-07T07:51:47;12.82;;;11.52;;
40314;SDS011;26021;45.640;11.302;2023-05-07T07:54:13;10.40;;;9.50;;
40314;SDS011;26021;45.640;11.302;2023-05-07T07:56:38;10.32;;;9.30;;
40314;SDS011;26021;45.640;11.302;2023-05-07T07:59:04;9.82;;;8.32;;
40314;SDS011;26021;45.640;11.302;2023-05-07T08:01:30;9.43;;;8.63;;
40314;SDS011;26021;45.640;11.302;2023-05-07T08:03:56;9.23;;;8.05;;
40314;SDS011;26021;45.640;11.302;2023-05-07T08:06:23;10.38;;;9.30;;
40314;SDS011;26021;45.640;11.302;2023-05-07T08:08:50;8.02;;;7.32;;
40314;SDS011;26021;45.640;11.302;2023-05-07T08:11:15;11.95;;;7.45;;
40314;SDS011;26021;45.640;11.302;2023-05-07T08:13:41;8.23;;;7.43;;
40314;SDS011;26021;45.640;11.302;2023-05-07T08:16:06;7.63;;;7.00;;
40314;SDS011;26021;45.640;11.302;2023-05-07T08:18:32;8.05;;;7.35;;
40314;SDS011;26021;45.640;11.302;2023-05-07T08:20:57;8.52;;;7.75;;
40314;SDS011;26021;45.640;11.302;2023-05-07T08:23:23;8.95;;;8.13;;
40314;SDS011;26021;45.640;11.302;2023-05-07T08:25:51;7.88;;;7.10;;
40314;SDS011;26021;45.640;11.302;2023-05-07T08:28:17;7.53;;;6.82;;
40314;SDS011;26021;45.640;11.302;2023-05-07T08:30:42;9.35;;;8.35;;
40314;SDS011;26021;45.640;11.302;2023-05-07T08:33:10;8.65;;;7.80;;
40314;SDS011;26021;45.640;11.302;2023-05-07T08:35:36;9.10;;;8.15;;
40314;SDS011;26021;45.640;11.302;2023-05-07T08:38:01;10.98;;;9.25;;
40314;SDS011;26021;45.640;11.302;2023-05-07T08:40:27;10.20;;;9.07;;
40314;SDS011;26021;45.640;11.302;2023-05-07T08:42:53;9.68;;;8.70;;
40314;SDS011;26021;45.640;11.302;2023-05-07T08:45:21;9.18;;;8.20;;
40314;SDS011;26021;45.640;11.302;2023-05-07T08:47:58;10.48;;;9.48;;
40314;SDS011;26021;45.640;11.302;2023-05-07T08:50:24;10.68;;;9.65;;
40314;SDS011;26021;45.640;11.302;2023-05-07T08:52:50;14.15;;;10.88;;
40314;SDS011;26021;45.640;11.302;2023-05-07T08:55:15;9.50;;;8.70;;
40314;SDS011;26021;45.640;11.302;2023-05-07T08:57:42;11.57;;;10.43;;
40314;SDS011;26021;45.640;11.302;2023-05-07T09:00:10;12.60;;;11.40;;
40314;SDS011;26021;45.640;11.302;2023-05-07T09:02:36;17.58;;;11.20;;
40314;SDS011;26021;45.640;11.302;2023-05-07T09:05:02;11.52;;;10.45;;
40314;SDS011;26021;45.640;11.302;2023-05-07T09:07:28;13.38;;;11.23;;
40314;SDS011;26021;45.640;11.302;2023-05-07T09:09:55;11.38;;;10.38;;
40314;SDS011;26021;45.640;11.302;2023-05-07T09:12:22;10.43;;;9.40;;
40314;SDS011;26021;45.640;11.302;2023-05-07T09:14:47;13.93;;;10.20;;
40314;SDS011;26021;45.640;11.302;2023-05-07T09:17:13;12.23;;;10.98;;
40314;SDS011;26021;45.640;11.302;2023-05-07T09:19:40;14.07;;;12.05;;
40314;SDS011;26021;45.640;11.302;2023-05-07T09:22:06;11.95;;;10.77;;
40314;SDS011;26021;45.640;11.302;2023-05-07T09:24:34;12.18;;;10.90;;
40314;SDS011;26021;45.640;11.302;2023-05-07T09:27:02;10.70;;;9.60;;
40314;SDS011;26021;45.640;11.302;2023-05-07T09:29:29;14.65;;;12.57;;
40314;SDS011;26021;45.640;11.302;2023-05-07T09:31:57;11.73;;;10.52;;
40314;SDS011;26021;45.640;11.302;2023-05-07T09:34:23;13.68;;;10.68;;
40314;SDS011;26021;45.640;11.302;2023-05-07T09:36:48;10.18;;;9.18;;
40314;SDS011;26021;45.640;11.302;2023-05-07T09:39:14;9.45;;;8.52;;
40314;SDS011;26021;45.640;11.302;2023-05-07T09:41:43;8.07;;;7.35;;
40314;SDS011;26021;45.640;11.302;2023-05-07T09:44:10;11.63;;;9.55;;
40314;SDS011;26021;45.640;11.302;2023-05-07T09:46:36;10.52;;;9.43;;
40314;SDS011;26021;45.640;11.302;2023-05-07T09:49:03;10.90;;;9.27;;
40314;SDS011;26021;45.640;11.302;2023-05-07T09:51:38;10.60;;;9.60;;
40314;SDS011;26021;45.640;11.302;2023-05-07T10:02:43;21.20;;;11.10;;
40314;SDS011;26021;45.640;11.302;2023-05-07T10:05:14;12.02;;;10.85;;
40314;SDS011;26021;45.640;11.302;2023-05-07T10:07:40;15.27;;;13.68;;
40314;SDS011;26021;45.640;11.302;2023-05-07T10:10:05;13.45;;;10.95;;
40314;SDS011;26021;45.640;11.302;2023-05-07T10:12:32;16.60;;;14.73;;
40314;SDS011;26021;45.640;11.302;2023-05-07T10:15:04;12.55;;;11.25;;
40314;SDS011;26021;45.640;11.302;2023-05-07T10:17:31;11.57;;;10.55;;
40314;SDS011;26021;45.640;11.302;2023-05-07T10:19:57;8.43;;;7.63;;
40314;SDS011;26021;45.640;11.302;2023-05-07T10:22:23;8.77;;;7.35;;
40314;SDS011;26021;45.640;11.302;2023-05-07T10:24:51;7.40;;;6.80;;
40314;SDS011;26021;45.640;11.302;2023-05-07T10:27:19;7.90;;;7.10;;
40314;SDS011;26021;45.640;11.302;2023-05-07T10:35:02;8.25;;;7.45;;
40314;SDS011;26021;45.640;11.302;2023-05-07T10:37:31;8.20;;;6.50;;
40314;SDS011;26021;45.640;11.302;2023-05-07T10:39:57;8.88;;;7.55;;
40314;SDS011;26021;45.640;11.302;2023-05-07T10:42:23;10.15;;;8.75;;
40314;SDS011;26021;45.640;11.302;2023-05-07T10:44:49;7.30;;;6.38;;
40314;SDS011;26021;45.640;11.302;2023-05-07T10:47:18;7.57;;;6.85;;
40314;SDS011;26021;45.640;11.302;2023-05-07T10:52:15;10.02;;;5.75;;
40314;SDS011;26021;45.640;11.302;2023-05-07T10:54:42;7.30;;;6.00;;
40314;SDS011;26021;45.640;11.302;2023-05-07T10:59:53;5.90;;;5.40;;
40314;SDS011;26021;45.640;11.302;2023-05-07T11:02:19;6.18;;;5.60;;
40314;SDS011;26021;45.640;11.302;2023-05-07T11:04:44;5.57;;;5.07;;
40314;SDS011;26021;45.640;11.302;2023-05-07T11:13:02;9.50;;;8.55;;
40314;SDS011;26021;45.640;11.302;2023-05-07T11:17:32;11.57;;;10.35;;
40314;SDS011;26021;45.640;11.302;2023-05-07T11:20:00;12.07;;;10.90;;
40314;SDS011;26021;45.640;11.302;2023-05-07T11:25:04;12.65;;;11.35;;
40314;SDS011;26021;45.640;11.302;2023-05-07T11:29:58;14.45;;;11.35;;
40314;SDS011;26021;45.640;11.302;2023-05-07T11:32:27;13.82;;;12.48;;
40314;SDS011;26021;45.640;11.302;2023-05-07T11:34:55;12.43;;;11.07;;
40314;SDS011;26021;45.640;11.302;2023-05-07T11:37:22;11.10;;;9.95;;
40314;SDS011;26021;45.640;11.302;2023-05-07T11:39:48;12.80;;;11.20;;
40314;SDS011;26021;45.640;11.302;2023-05-07T11:44:52;11.13;;;9.77;;
40314;SDS011;26021;45.640;11.302;2023-05-07T11:47:18;10.65;;;9.75;;
40314;SDS011;26021;45.640;11.302;2023-05-07T11:49:49;13.40;;;10.70;;
40314;SDS011;26021;45.640;11.302;2023-05-07T11:52:16;12.45;;;10.25;;
40314;SDS011;26021;45.640;11.302;2023-05-07T11:54:52;10.95;;;9.90;;
40314;SDS011;26021;45.640;11.302;2023-05-07T11:57:23;12.50;;;11.40;;
40314;SDS011;26021;45.640;11.302;2023-05-07T11:59:59;12.38;;;11.18;;
40314;SDS011;26021;45.640;11.302;2023-05-07T12:02:27;11.98;;;10.32;;
40314;SDS011;26021;45.640;11.302;2023-05-07T12:04:53;9.55;;;8.75;;
40314;SDS011;26021;45.640;11.302;2023-05-07T12:07:19;10.80;;;9.73;;
40314;SDS011;26021;45.640;11.302;2023-05-07T12:09:45;12.20;;;10.73;;
40314;SDS011;26021;45.640;11.302;2023-05-07T12:12:12;12.07;;;10.98;;
40314;SDS011;26021;45.640;11.302;2023-05-07T12:14:40;10.82;;;9.88;;
40314;SDS011;26021;45.640;11.302;2023-05-07T12:17:07;10.73;;;9.77;;
40314;SDS011;26021;45.640;11.302;2023-05-07T12:19:34;10.60;;;9.60;;
40314;SDS011;26021;45.640;11.302;2023-05-07T12:22:01;10.73;;;9.68;;
40314;SDS011;26021;45.640;11.302;2023-05-07T12:24:27;10.88;;;9.88;;
40314;SDS011;26021;45.640;11.302;2023-05-07T12:26:53;11.88;;;10.77;;
40314;SDS011;26021;45.640;11.302;2023-05-07T12:29:22;12.93;;;10.52;;
40314;SDS011;26021;45.640;11.302;2023-05-07T12:31:50;15.18;;;11.15;;
40314;SDS011;26021;45.640;11.302;2023-05-07T12:34:15;12.90;;;11.68;;
40314;SDS011;26021;45.640;11.302;2023-05-07T12:36:41;12.45;;;11.00;;
40314;SDS011;26021;45.640;11.302;2023-05-07T12:39:07;15.75;;;12.23;;
40314;SDS011;26021;45.640;11.302;2023-05-07T12:41:51;12.38;;;11.18;;
40314;SDS011;26021;45.640;11.302;2023-05-07T12:44:24;12.13;;;11.02;;
40314;SDS011;26021;45.640;11.302;2023-05-07T12:46:53;12.07;;;10.80;;
40314;SDS011;26021;45.640;11.302;2023-05-07T12:49:19;13.05;;;10.27;;
40314;SDS011;26021;45.640;11.302;2023-05-07T12:51:46;11.95;;;10.75;;
40314;SDS011;26021;45.640;11.302;2023-05-07T12:54:13;11.00;;;9.95;;
40314;SDS011;26021;45.640;11.302;2023-05-07T12:56:39;10.48;;;9.57;;
40314;SDS011;26021;45.640;11.302;2023-05-07T12:59:04;14.75;;;12.40;;
40314;SDS011;26021;45.640;11.302;2023-05-07T13:01:30;12.68;;;11.48;;
40314;SDS011;26021;45.640;11.302;2023-05-07T13:03:59;13.13;;;11.82;;
40314;SDS011;26021;45.640;11.302;2023-05-07T13:06:26;11.70;;;10.60;;
40314;SDS011;26021;45.640;11.302;2023-05-07T13:08:51;11.85;;;10.68;;
40314;SDS011;26021;45.640;11.302;2023-05-07T13:11:17;13.27;;;11.55;;
40314;SDS011;26021;45.640;11.302;2023-05-07T13:13:42;11.10;;;9.77;;
40314;SDS011;26021;45.640;11.302;2023-05-07T13:16:09;16.48;;;9.77;;
40314;SDS011;26021;45.640;11.302;2023-05-07T13:18:37;12.95;;;11.20;;
40314;SDS011;26021;45.640;11.302;2023-05-07T13:21:04;12.00;;;10.85;;
40314;SDS011;26021;45.640;11.302;2023-05-07T13:23:29;11.77;;;10.52;;
40314;SDS011;26021;45.640;11.302;2023-05-07T13:25:55;11.68;;;10.57;;
40314;SDS011;26021;45.640;11.302;2023-05-07T13:28:22;13.32;;;11.70;;
40314;SDS011;26021;45.640;11.302;2023-05-07T13:30:51;12.95;;;11.68;;
40314;SDS011;26021;45.640;11.302;2023-05-07T13:33:17;11.05;;;10.05;;
40314;SDS011;26021;45.640;11.302;2023-05-07T13:35:43;11.07;;;10.05;;
40314;SDS011;26021;45.640;11.302;2023-05-07T13:38:09;11.27;;;9.57;;
40314;SDS011;26021;45.640;11.302;2023-05-07T13:40:34;9.75;;;8.95;;
40314;SDS011;26021;45.640;11.302;2023-05-07T13:43:00;10.38;;;9.45;;
40314;SDS011;26021;45.640;11.302;2023-05-07T13:45:29;11.40;;;10.40;;
40314;SDS011;26021;45.640;11.302;2023-05-07T13:47:55;12.02;;;10.93;;
40314;SDS011;26021;45.640;11.302;2023-05-07T13:50:21;13.02;;;11.82;;
40314;SDS011;26021;45.640;11.302;2023-05-07T13:52:47;14.05;;;12.65;;
40314;SDS011;26021;45.640;11.302;2023-05-07T13:55:18;12.77;;;11.52;;
40314;SDS011;26021;45.640;11.302;2023-05-07T13:57:44;14.38;;;11.52;;
40314;SDS011;26021;45.640;11.302;2023-05-07T14:00:11;13.52;;;12.10;;
40314;SDS011;26021;45.640;11.302;2023-05-07T14:02:37;12.05;;;10.98;;
40314;SDS011;26021;45.640;11.302;2023-05-07T14:05:03;13.70;;;11.63;;
40314;SDS011;26021;45.640;11.302;2023-05-07T14:07:28;12.32;;;11.23;;
40314;SDS011;26021;45.640;11.302;2023-05-07T14:09:54;11.65;;;10.50;;
40314;SDS011;26021;45.640;11.302;2023-05-07T14:12:20;12.48;;;11.38;;
40314;SDS011;26021;45.640;11.302;2023-05-07T14:14:46;13.63;;;12.20;;
40314;SDS011;26021;45.640;11.302;2023-05-07T14:17:12;14.13;;;12.82;;
40314;SDS011;26021;45.640;11.302;2023-05-07T14:19:37;15.27;;;13.68;;
40314;SDS011;26021;45.640;11.302;2023-05-07T14:22:03;13.93;;;12.52;;
40314;SDS011;26021;45.640;11.302;2023-05-07T14:24:28;15.05;;;12.63;;
40314;SDS011;26021;45.640;11.302;2023-05-07T14:26:54;13.63;;;12.32;;
40314;SDS011;26021;45.640;11.302;2023-05-07T14:29:19;15.30;;;13.63;;
40314;SDS011;26021;45.640;11.302;2023-05-07T14:31:45;15.43;;;13.90;;
40314;SDS011;26021;45.640;11.302;2023-05-07T14:34:11;13.52;;;12.13;;
40314;SDS011;26021;45.640;11.302;2023-05-07T14:36:36;15.32;;;13.57;;
40314;SDS011;26021;45.640;11.302;2023-05-07T14:39:03;15.05;;;13.50;;
40314;SDS011;26021;45.640;11.302;2023-05-07T14:41:28;14.90;;;13.50;;
40314;SDS011;26021;45.640;11.302;2023-05-07T14:43:54;13.32;;;12.13;;
40314;SDS011;26021;45.640;11.302;2023-05-07T14:46:19;14.55;;;12.65;;